createdAt,value
2022-08-01T00:00:48.774Z,9.83
2022-08-01T00:03:15.804Z,7.90
2022-08-01T00:05:44.367Z,9.40
2022-08-01T00:08:11.334Z,7.23
2022-08-01T00:10:38.239Z,7.73
2022-08-01T00:13:05.246Z,7.80
2022-08-01T00:15:33.234Z,6.97
2022-08-01T00:18:00.448Z,10.30
2022-08-01T00:20:27.890Z,7.43
2022-08-01T00:22:54.835Z,5.73
2022-08-01T00:25:21.748Z,9.57
2022-08-01T00:28:01.396Z,12.43
2022-08-01T00:30:28.331Z,9.97
2022-08-01T00:32:55.219Z,5.77
2022-08-01T00:35:23.431Z,6.40
2022-08-01T00:37:50.537Z,7.50
2022-08-01T00:40:17.438Z,5.90
2022-08-01T00:42:44.388Z,6.93
2022-08-01T00:45:12.618Z,4.77
2022-08-01T00:47:40.590Z,4.53
2022-08-01T00:50:09.259Z,4.00
2022-08-01T00:52:39.915Z,4.20
2022-08-01T00:55:07.534Z,4.17
2022-08-01T00:58:02.812Z,4.03
2022-08-01T01:00:26.354Z,4.17
2022-08-01T01:02:54.823Z,5.10
2022-08-01T01:05:22.311Z,5.03
2022-08-01T01:08:06.435Z,5.47
2022-08-01T01:10:57.115Z,6.27
2022-08-01T01:13:49.555Z,4.10
2022-08-01T01:16:21.846Z,4.27
2022-08-01T01:18:54.645Z,4.90
2022-08-01T01:21:24.829Z,3.07
2022-08-01T01:24:05.785Z,4.63
2022-08-01T01:26:58.679Z,3.00
2022-08-01T01:29:59.918Z,4.20
2022-08-01T01:32:46.304Z,5.93
2022-08-01T01:35:25.615Z,4.93
2022-08-01T01:38:14.628Z,4.07
2022-08-01T01:40:43.217Z,4.33
2022-08-01T01:43:14.673Z,3.33
2022-08-01T01:45:47.997Z,3.87
2022-08-01T01:48:18.973Z,6.30
2022-08-01T01:50:50.979Z,4.63
2022-08-01T01:53:23.215Z,5.97
2022-08-01T01:55:55.489Z,8.63
2022-08-01T01:58:24.682Z,3.30
2022-08-01T02:00:55.115Z,5.93
2022-08-01T02:03:23.774Z,8.33
2022-08-01T02:05:54.721Z,10.87
2022-08-01T02:08:24.308Z,8.37
2022-08-01T02:11:14.511Z,6.60
2022-08-01T02:13:43.479Z,8.63
2022-08-01T02:16:13.597Z,6.17
2022-08-01T02:18:42.464Z,6.17
2022-08-01T02:21:14.615Z,9.97
2022-08-01T02:23:43.241Z,7.70
2022-08-01T02:26:16.784Z,4.93
2022-08-01T02:29:01.852Z,7.20
2022-08-01T02:31:38.486Z,4.87
2022-08-01T02:34:10.882Z,5.03
2022-08-01T02:36:39.417Z,6.10
2022-08-01T02:39:14.206Z,6.97
2022-08-01T02:41:50.896Z,6.27
2022-08-01T02:44:30.972Z,11.20
2022-08-01T02:47:03.414Z,7.67
2022-08-01T02:49:42.852Z,7.73
2022-08-01T02:52:14.613Z,8.97
2022-08-01T02:54:46.467Z,7.93
2022-08-01T02:57:16.256Z,8.03
2022-08-01T02:59:47.942Z,8.47
2022-08-01T03:02:16.128Z,8.60
2022-08-01T03:04:44.718Z,7.10
2022-08-01T03:07:13.791Z,12.70
2022-08-01T03:09:45.591Z,9.33
2022-08-01T03:12:28.220Z,9.37
2022-08-01T03:15:00.686Z,9.27
2022-08-01T03:17:30.414Z,10.60
2022-08-01T03:19:59.941Z,8.13
2022-08-01T03:22:31.376Z,8.00
2022-08-01T03:25:02.764Z,11.53
2022-08-01T03:27:30.843Z,8.67
2022-08-01T03:29:59.339Z,7.77
2022-08-01T03:32:29.120Z,8.23
2022-08-01T03:34:56.295Z,9.43
2022-08-01T03:37:26.902Z,8.10
2022-08-01T03:40:06.910Z,8.70
2022-08-01T03:42:39.864Z,32.30
2022-08-01T03:45:13.445Z,24.23
2022-08-01T03:47:45.196Z,32.50
2022-08-01T03:50:15.048Z,21.53
2022-08-01T03:52:45.936Z,19.23
2022-08-01T03:55:14.343Z,12.57
2022-08-01T03:57:42.202Z,16.13
2022-08-01T04:00:10.582Z,17.73
2022-08-01T04:02:41.197Z,16.13
2022-08-01T04:05:08.886Z,15.90
2022-08-01T04:07:40.946Z,16.40
2022-08-01T04:10:09.018Z,11.13
2022-08-01T04:12:35.990Z,11.27
2022-08-01T04:15:04.580Z,13.77
2022-08-01T04:17:31.479Z,14.60
2022-08-01T04:19:58.479Z,15.50
2022-08-01T04:22:25.342Z,22.63
2022-08-01T04:24:57.378Z,12.43
2022-08-01T04:27:49.728Z,14.33
2022-08-01T04:30:28.032Z,14.60
2022-08-01T04:33:00.038Z,14.87
2022-08-01T04:36:04.204Z,13.07
2022-08-01T04:38:24.259Z,18.60
2022-08-01T04:40:53.393Z,15.43
2022-08-01T04:43:20.790Z,13.97
2022-08-01T04:45:49.174Z,13.80
2022-08-01T04:48:20.319Z,25.10
2022-08-01T04:50:49.973Z,21.07
2022-08-01T04:53:19.385Z,14.87
2022-08-01T04:55:47.342Z,13.37
2022-08-01T04:58:18.554Z,14.10
2022-08-01T05:00:47.632Z,12.93
2022-08-01T05:03:14.874Z,13.87
2022-08-01T05:05:44.742Z,15.50
2022-08-01T05:08:11.709Z,18.80
2022-08-01T05:10:38.647Z,19.23
2022-08-01T05:13:07.392Z,13.80
2022-08-01T05:15:37.545Z,18.53
2022-08-01T05:18:05.406Z,17.87
2022-08-01T05:20:34.751Z,18.77
2022-08-01T05:23:01.670Z,16.40
2022-08-01T05:25:57.644Z,14.93
2022-08-01T05:28:17.556Z,16.67
2022-08-01T05:30:46.458Z,16.30
2022-08-01T05:33:13.373Z,16.73
2022-08-01T05:35:47.906Z,17.90
2022-08-01T05:38:15.360Z,14.93
2022-08-01T05:40:42.265Z,17.13
2022-08-01T05:43:09.153Z,17.40
2022-08-01T05:45:38.426Z,19.20
2022-08-01T05:48:05.953Z,20.17
2022-08-01T05:50:34.764Z,17.53
2022-08-01T05:53:01.676Z,16.33
2022-08-01T05:55:28.622Z,18.43
2022-08-01T05:57:55.593Z,18.57
2022-08-01T06:00:22.546Z,14.93
2022-08-01T06:02:49.572Z,16.33
2022-08-01T06:05:16.958Z,15.63
2022-08-01T06:07:43.949Z,20.00
2022-08-01T06:10:11.197Z,18.67
2022-08-01T06:12:38.435Z,19.97
2022-08-01T06:15:09.297Z,15.87
2022-08-01T06:17:36.527Z,14.23
2022-08-01T06:20:04.986Z,15.40
2022-08-01T06:22:31.898Z,15.03
2022-08-01T06:24:59.975Z,20.67
2022-08-01T06:27:27.017Z,15.90
2022-08-01T06:29:57.457Z,14.97
2022-08-01T06:32:27.362Z,21.33
2022-08-01T06:34:56.365Z,16.63
2022-08-01T06:37:24.350Z,16.70
2022-08-01T06:39:51.363Z,15.07
2022-08-01T06:42:18.820Z,13.50
2022-08-01T06:44:46.273Z,16.10
2022-08-01T06:47:13.652Z,13.93
2022-08-01T06:49:40.855Z,18.77
2022-08-01T06:52:08.260Z,27.27
2022-08-01T06:54:35.621Z,15.70
2022-08-01T06:57:06.614Z,27.67
2022-08-01T06:59:34.396Z,30.37
2022-08-01T07:02:02.314Z,13.80
2022-08-01T07:04:29.451Z,13.87
2022-08-01T07:06:57.279Z,15.07
2022-08-01T07:09:24.435Z,14.03
2022-08-01T07:11:53.278Z,14.63
2022-08-01T07:14:21.671Z,15.27
2022-08-01T07:16:49.326Z,14.37
2022-08-01T07:19:17.107Z,16.93
2022-08-01T07:21:45.218Z,14.60
2022-08-01T07:24:15.503Z,11.23
2022-08-01T07:26:52.679Z,12.50
2022-08-01T07:29:24.307Z,14.33
2022-08-01T07:31:54.127Z,11.35
2022-08-01T07:34:22.441Z,11.73
2022-08-01T07:36:49.355Z,11.75
2022-08-01T07:39:16.308Z,10.20
2022-08-01T07:41:43.231Z,12.57
2022-08-01T07:44:20.483Z,16.13
2022-08-01T07:46:47.311Z,10.88
2022-08-01T07:49:14.418Z,10.50
2022-08-01T07:51:41.406Z,18.05
2022-08-01T07:54:08.748Z,10.70
2022-08-01T07:56:37.377Z,11.35
2022-08-01T07:59:04.286Z,10.32
2022-08-01T08:01:31.284Z,12.68
2022-08-01T08:03:58.287Z,10.07
2022-08-01T08:06:25.404Z,15.95
2022-08-01T08:08:54.568Z,10.82
2022-08-01T08:11:21.603Z,11.32
2022-08-01T08:13:48.583Z,10.82
2022-08-01T08:16:15.523Z,12.38
2022-08-01T08:18:42.603Z,12.27
2022-08-01T08:21:09.607Z,11.90
2022-08-01T08:23:55.504Z,11.50
2022-08-01T08:26:24.369Z,12.70
2022-08-01T08:28:51.338Z,12.73
2022-08-01T08:31:51.187Z,11.85
2022-08-01T08:34:05.394Z,11.23
2022-08-01T08:36:32.766Z,11.77
2022-08-01T08:39:01.667Z,22.23
2022-08-01T08:41:38.122Z,10.10
2022-08-01T08:44:09.936Z,12.57
2022-08-01T08:46:49.951Z,13.00
2022-08-01T08:49:26.689Z,8.68
2022-08-01T08:52:02.437Z,8.90
2022-08-01T08:54:32.128Z,7.88
2022-08-01T08:57:01.148Z,18.98
2022-08-01T08:59:29.403Z,37.60
2022-08-01T09:01:57.886Z,8.98
2022-08-01T09:04:27.148Z,5.78
2022-08-01T09:06:55.779Z,6.22
2022-08-01T09:09:23.961Z,6.30
2022-08-01T09:11:57.666Z,6.45
2022-08-01T09:14:30.793Z,6.40
2022-08-01T09:17:13.732Z,5.40
2022-08-01T09:19:43.276Z,5.53
2022-08-01T09:22:19.310Z,6.20
2022-08-01T09:25:18.819Z,5.53
2022-08-01T09:27:46.560Z,5.40
2022-08-01T09:30:23.938Z,4.18
2022-08-01T09:33:06.431Z,3.63
2022-08-01T09:35:54.839Z,6.07
2022-08-01T09:38:28.065Z,5.13
2022-08-01T09:41:01.417Z,4.18
2022-08-01T09:43:31.701Z,4.47
2022-08-01T09:46:00.879Z,5.90
2022-08-01T09:48:29.562Z,3.50
2022-08-01T09:51:04.984Z,3.95
2022-08-01T09:53:51.840Z,3.72
2022-08-01T09:56:22.736Z,5.38
2022-08-01T09:59:02.287Z,7.15
2022-08-01T10:01:45.026Z,3.60
2022-08-01T10:04:21.716Z,3.90
2022-08-01T10:06:55.555Z,2.80
2022-08-01T10:09:35.956Z,5.72
2022-08-01T10:12:15.231Z,3.65
2022-08-01T10:14:50.435Z,2.85
2022-08-01T10:17:20.841Z,3.95
2022-08-01T10:19:51.492Z,2.80
2022-08-01T10:22:20.978Z,6.53
2022-08-01T10:24:49.617Z,4.38
2022-08-01T10:27:24.510Z,7.30
2022-08-01T10:30:19.331Z,4.47
2022-08-01T10:32:50.771Z,2.42
2022-08-01T10:35:45.968Z,2.50
2022-08-01T10:38:13.397Z,2.10
2022-08-01T10:40:43.348Z,3.22
2022-08-01T10:43:21.638Z,1.98
2022-08-01T10:45:51.421Z,2.60
2022-08-01T10:48:40.441Z,2.13
2022-08-01T10:51:18.301Z,6.18
2022-08-01T10:53:54.800Z,2.55
2022-08-01T10:56:27.043Z,5.85
2022-08-01T10:59:06.724Z,2.05
2022-08-01T11:01:45.384Z,6.72
2022-08-01T11:04:17.653Z,2.63
2022-08-01T11:07:06.350Z,3.55
2022-08-01T11:09:51.816Z,2.17
2022-08-01T11:12:24.815Z,2.05
2022-08-01T11:15:02.736Z,1.60
2022-08-01T11:17:42.029Z,1.73
2022-08-01T11:20:16.346Z,2.35
2022-08-01T11:23:03.565Z,9.73
2022-08-01T11:26:05.601Z,7.13
2022-08-01T11:28:41.188Z,1.92
2022-08-01T11:31:17.287Z,1.60
2022-08-01T11:33:46.467Z,1.75
2022-08-01T11:36:14.833Z,1.65
2022-08-01T11:39:13.074Z,1.67
2022-08-01T11:41:44.942Z,1.55
2022-08-01T11:44:26.249Z,1.55
2022-08-01T11:47:11.609Z,1.73
2022-08-01T11:49:48.928Z,1.67
2022-08-01T11:52:41.784Z,3.25
2022-08-01T11:55:11.353Z,1.40
2022-08-01T11:57:39.538Z,4.75
2022-08-01T12:00:18.791Z,1.42
2022-08-01T12:03:08.625Z,2.42
2022-08-01T12:05:37.963Z,1.60
2022-08-01T12:08:10.502Z,1.40
2022-08-01T12:10:47.038Z,1.80
2022-08-01T12:13:14.353Z,1.17
2022-08-01T12:15:41.432Z,2.80
2022-08-01T12:18:08.878Z,2.65
2022-08-01T12:20:55.672Z,3.85
2022-08-01T12:23:23.397Z,1.63
2022-08-01T12:25:54.067Z,2.55
2022-08-01T12:28:21.947Z,2.20
2022-08-01T12:30:50.440Z,2.10
2022-08-01T12:33:22.024Z,4.53
2022-08-01T12:35:49.260Z,2.95
2022-08-01T12:38:23.017Z,1.45
2022-08-01T12:40:53.231Z,5.45
2022-08-01T12:43:27.352Z,2.63
2022-08-01T12:46:00.083Z,1.52
2022-08-01T12:48:31.153Z,2.25
2022-08-01T12:51:01.370Z,3.58
2022-08-01T12:53:40.734Z,2.33
2022-08-01T12:56:11.268Z,3.97
2022-08-01T12:58:38.883Z,1.50
2022-08-01T13:01:14.113Z,5.60
2022-08-01T13:03:42.137Z,1.45
2022-08-01T13:06:16.142Z,2.80
2022-08-01T13:08:44.517Z,3.72
2022-08-01T13:11:18.986Z,1.48
2022-08-01T13:13:52.181Z,1.50
2022-08-01T13:16:31.055Z,3.55
2022-08-01T13:19:07.129Z,3.95
2022-08-01T13:21:53.954Z,1.33
2022-08-01T13:24:30.232Z,3.70
2022-08-01T13:27:04.678Z,1.98
2022-08-01T13:29:42.391Z,1.45
2022-08-01T13:32:28.444Z,1.75
2022-08-01T13:35:14.270Z,3.33
2022-08-01T13:37:43.603Z,1.30
2022-08-01T13:40:11.779Z,1.33
2022-08-01T13:42:39.457Z,1.35
2022-08-01T13:45:14.822Z,1.38
2022-08-01T13:48:04.012Z,5.05
2022-08-01T13:50:30.469Z,4.55
2022-08-01T13:52:58.066Z,2.28
2022-08-01T13:55:25.114Z,2.03
2022-08-01T13:57:52.066Z,1.98
2022-08-01T14:00:19.084Z,3.22
2022-08-01T14:02:45.997Z,1.92
2022-08-01T14:05:13.591Z,1.20
2022-08-01T14:07:41.321Z,1.40
2022-08-01T14:10:18.479Z,1.58
2022-08-01T14:12:49.204Z,4.63
2022-08-01T14:15:36.752Z,1.83
2022-08-01T14:18:05.877Z,1.40
2022-08-01T14:20:38.173Z,1.55
2022-08-01T14:23:06.376Z,3.50
2022-08-01T14:26:03.129Z,1.38
2022-08-01T14:28:29.483Z,1.80
2022-08-01T14:30:59.791Z,5.97
2022-08-01T14:33:27.389Z,1.33
2022-08-01T14:36:06.154Z,1.85
2022-08-01T14:38:41.522Z,0.90
2022-08-01T14:41:11.295Z,2.05
2022-08-01T14:43:38.424Z,0.80
2022-08-01T14:46:05.654Z,1.30
2022-08-01T14:48:33.250Z,1.85
2022-08-01T14:51:03.625Z,1.48
2022-08-01T14:53:35.763Z,2.08
2022-08-01T14:56:04.831Z,1.88
2022-08-01T14:58:31.924Z,6.78
2022-08-01T15:00:59.694Z,2.15
2022-08-01T15:03:27.696Z,5.57
2022-08-01T15:05:55.252Z,1.58
2022-08-01T15:08:22.262Z,5.43
2022-08-01T15:10:49.490Z,3.17
2022-08-01T15:13:16.515Z,1.50
2022-08-01T15:15:43.491Z,1.73
2022-08-01T15:18:10.460Z,2.38
2022-08-01T15:20:37.442Z,2.00
2022-08-01T15:23:04.981Z,2.92
2022-08-01T15:25:41.605Z,4.15
2022-08-01T15:28:11.066Z,3.72
2022-08-01T15:30:38.495Z,1.20
2022-08-01T15:33:05.727Z,1.48
2022-08-01T15:35:33.069Z,2.72
2022-08-01T15:38:00.196Z,5.47
2022-08-01T15:40:28.015Z,6.40
2022-08-01T15:42:55.209Z,6.63
2022-08-01T15:45:47.382Z,1.67
2022-08-01T15:48:10.051Z,1.58
2022-08-01T15:50:39.053Z,3.08
2022-08-01T15:53:07.278Z,4.03
2022-08-01T15:55:40.145Z,1.52
2022-08-01T15:58:08.123Z,2.85
2022-08-01T16:00:39.455Z,3.15
2022-08-01T16:03:07.967Z,1.52
2022-08-01T16:05:41.074Z,4.45
2022-08-01T16:08:12.128Z,1.13
2022-08-01T16:10:40.799Z,2.78
2022-08-01T16:13:08.232Z,2.80
2022-08-01T16:15:37.619Z,3.22
2022-08-01T16:18:10.638Z,1.40
2022-08-01T16:20:43.008Z,1.60
2022-08-01T16:23:12.938Z,1.10
2022-08-01T16:25:39.899Z,2.38
2022-08-01T16:28:07.512Z,1.15
2022-08-01T16:30:34.410Z,1.40
2022-08-01T16:33:08.066Z,12.32
2022-08-01T16:35:45.862Z,2.28
2022-08-01T16:38:19.263Z,1.42
2022-08-01T16:40:49.870Z,2.75
2022-08-01T16:43:19.508Z,1.13
2022-08-01T16:45:47.324Z,2.75
2022-08-01T16:48:16.159Z,1.00
2022-08-01T16:50:43.402Z,1.20
2022-08-01T16:53:11.758Z,1.10
2022-08-01T16:55:49.587Z,1.50
2022-08-01T16:58:27.768Z,1.48
2022-08-01T17:00:57.573Z,3.00
2022-08-01T17:03:51.436Z,1.20
2022-08-01T17:06:13.740Z,2.40
2022-08-01T17:08:46.469Z,1.65
2022-08-01T17:11:15.577Z,1.48
2022-08-01T17:13:43.351Z,1.50
2022-08-01T17:16:10.815Z,1.63
2022-08-01T17:18:37.897Z,1.33
2022-08-01T17:21:05.046Z,1.48
2022-08-01T17:23:32.190Z,2.22
2022-08-01T17:25:59.666Z,3.85
2022-08-01T17:28:27.012Z,2.83
2022-08-01T17:30:54.490Z,1.15
2022-08-01T17:33:21.480Z,2.38
2022-08-01T17:35:49.690Z,1.98
2022-08-01T17:38:17.003Z,2.13
2022-08-01T17:40:44.041Z,1.70
2022-08-01T17:43:11.473Z,1.70
2022-08-01T17:45:50.959Z,3.63
2022-08-01T17:48:22.630Z,2.10
2022-08-01T17:50:49.948Z,2.78
2022-08-01T17:53:21.261Z,2.28
2022-08-01T17:55:55.445Z,7.65
2022-08-01T17:58:49.115Z,2.33
2022-08-01T18:01:20.506Z,2.25
2022-08-01T18:03:48.595Z,1.67
2022-08-01T18:06:19.034Z,3.10
2022-08-01T18:08:47.938Z,1.45
2022-08-01T18:11:16.902Z,2.50
2022-08-01T18:13:44.727Z,3.47
2022-08-01T18:16:13.591Z,1.35
2022-08-01T18:18:43.681Z,1.70
2022-08-01T18:21:12.750Z,1.42
2022-08-01T18:23:51.061Z,2.00
2022-08-01T18:26:23.017Z,1.55
2022-08-01T18:28:50.430Z,13.02
2022-08-01T18:31:20.089Z,1.83
2022-08-01T18:33:47.150Z,2.20
2022-08-01T18:36:31.880Z,2.17
2022-08-01T18:39:10.511Z,1.65
2022-08-01T18:41:39.017Z,1.48
2022-08-01T18:44:07.810Z,2.65
2022-08-01T18:46:38.745Z,1.67
2022-08-01T18:49:08.692Z,2.65
2022-08-01T18:51:42.897Z,1.98
2022-08-01T18:54:12.140Z,2.22
2022-08-01T18:56:39.080Z,2.15
2022-08-01T18:59:06.263Z,1.50
2022-08-01T19:01:33.509Z,3.75
2022-08-01T19:04:00.607Z,2.70
2022-08-01T19:06:28.921Z,1.98
2022-08-01T19:09:01.880Z,1.80
2022-08-01T19:11:31.094Z,5.50
2022-08-01T19:13:58.963Z,1.95
2022-08-01T19:16:27.369Z,1.25
2022-08-01T19:18:54.305Z,1.92
2022-08-01T19:21:23.190Z,2.05
2022-08-01T19:24:08.493Z,2.15
2022-08-01T19:26:37.277Z,1.88
2022-08-01T19:29:22.143Z,3.92
2022-08-01T19:31:50.576Z,1.70
2022-08-01T19:34:20.607Z,3.63
2022-08-01T19:36:57.711Z,1.55
2022-08-01T19:39:27.681Z,2.13
2022-08-01T19:41:57.107Z,5.47
2022-08-01T19:44:27.501Z,1.20
2022-08-01T19:46:55.876Z,2.00
2022-08-01T19:49:23.729Z,2.47
2022-08-01T19:52:03.911Z,1.80
2022-08-01T19:54:35.428Z,1.70
2022-08-01T19:57:06.372Z,1.63
2022-08-01T19:59:36.802Z,1.70
2022-08-01T20:02:05.549Z,1.93
2022-08-01T20:04:33.928Z,1.87
2022-08-01T20:07:00.834Z,4.13
2022-08-01T20:09:28.615Z,1.87
2022-08-01T20:11:55.587Z,2.57
2022-08-01T20:14:26.891Z,2.63
2022-08-01T20:16:56.557Z,4.07
2022-08-01T20:19:25.871Z,3.37
2022-08-01T20:22:07.224Z,3.50
2022-08-01T20:24:44.726Z,2.23
2022-08-01T20:27:15.521Z,2.00
2022-08-01T20:29:45.679Z,2.53
2022-08-01T20:32:14.836Z,1.63
2022-08-01T20:34:43.090Z,1.97
2022-08-01T20:37:13.123Z,4.17
2022-08-01T20:39:44.028Z,6.07
2022-08-01T20:42:13.867Z,2.70
2022-08-01T20:44:42.568Z,3.63
2022-08-01T20:47:10.016Z,3.93
2022-08-01T20:49:37.720Z,3.90
2022-08-01T20:52:11.193Z,3.97
2022-08-01T20:54:40.949Z,3.40
2022-08-01T20:57:25.255Z,4.00
2022-08-01T21:00:03.908Z,3.70
2022-08-01T21:03:08.804Z,2.90
2022-08-01T21:05:55.513Z,3.33
2022-08-01T21:08:44.117Z,3.80
2022-08-01T21:11:21.290Z,3.87
2022-08-01T21:13:49.935Z,3.40
2022-08-01T21:16:26.073Z,3.70
2022-08-01T21:22:06.886Z,3.30
2022-08-01T21:25:08.251Z,3.77
2022-08-01T21:27:36.200Z,2.80
2022-08-01T21:30:09.492Z,3.43
2022-08-01T21:32:37.737Z,2.57
2022-08-01T21:35:15.651Z,2.50
2022-08-01T21:37:45.394Z,2.20
2022-08-01T21:40:23.998Z,3.33
2022-08-01T21:42:53.969Z,4.70
2022-08-01T21:45:25.351Z,3.70
2022-08-01T21:47:54.413Z,6.40
2022-08-01T21:50:22.608Z,3.63
2022-08-01T21:53:08.827Z,4.30
2022-08-01T21:56:15.068Z,4.17
2022-08-01T21:59:00.615Z,3.53
2022-08-01T22:02:01.526Z,3.53
2022-08-01T22:05:05.084Z,2.10
2022-08-01T22:07:51.860Z,2.67
2022-08-01T22:10:20.611Z,3.27
2022-08-01T22:12:47.974Z,2.50
2022-08-01T22:15:15.180Z,2.37
2022-08-01T22:17:44.778Z,3.93
2022-08-01T22:20:12.404Z,3.00
2022-08-01T22:22:51.131Z,3.60
2022-08-01T22:25:21.451Z,3.73
2022-08-01T22:28:06.612Z,6.13
2022-08-01T22:30:42.305Z,3.70
2022-08-01T22:33:16.243Z,3.50
2022-08-01T22:35:47.445Z,3.43
2022-08-01T22:38:17.792Z,4.90
2022-08-01T22:41:05.583Z,3.40
2022-08-01T22:43:42.942Z,2.83
2022-08-01T22:46:31.397Z,2.70
2022-08-01T22:49:14.181Z,2.80
2022-08-01T22:52:27.171Z,2.67
2022-08-01T22:55:08.368Z,2.20
2022-08-01T22:57:54.806Z,2.53
2022-08-01T23:00:22.003Z,5.47
2022-08-01T23:02:58.213Z,4.00
2022-08-01T23:05:28.849Z,4.33
2022-08-01T23:08:01.139Z,3.53
2022-08-01T23:10:28.088Z,5.83
2022-08-01T23:12:56.119Z,2.67
2022-08-01T23:15:24.604Z,3.57
2022-08-01T23:17:52.199Z,2.70
2022-08-01T23:20:19.371Z,3.90
2022-08-01T23:22:49.084Z,6.03
2022-08-01T23:25:17.417Z,4.30
2022-08-01T23:27:55.737Z,4.67
2022-08-01T23:30:35.364Z,3.40
2022-08-01T23:33:03.381Z,3.83
2022-08-01T23:35:31.832Z,3.40
2022-08-01T23:38:03.261Z,2.50
2022-08-01T23:40:34.867Z,3.03
2022-08-01T23:43:04.705Z,4.20
2022-08-01T23:46:01.721Z,2.50
2022-08-01T23:48:19.741Z,2.60
2022-08-01T23:50:46.725Z,3.10
2022-08-01T23:53:13.840Z,6.30
2022-08-01T23:55:44.264Z,3.43
2022-08-01T23:58:11.645Z,2.67
